Terminal Aerodrome Forecast
Issued by NWS

Home | Current Version | Previous Version | Text Only | Print | Product List | Glossary On
Versions: 1 2 3 4 5 6 7 8 9 10 11 12 13 14 15 16 17 18
000
FTUS44 KHGX 101735
TAFCXO
TAF
KCXO 101735Z 1018/1118 11004KT P6SM OVC070
     FM102300 13006KT P6SM OVC045
     FM110600 14006KT P6SM SCT015 BKN035
     FM111300 15008KT P6SM BKN015 OVC030
     FM111500 17009KT P6SM BKN022 OVC035=

USA.gov is the U.S. government's official web portal to all federal, state and local government web resources and services.